createdAt,value
2022-10-25T00:02:23.772Z,13.50
2022-10-25T00:05:18.869Z,13.50
2022-10-25T00:08:04.931Z,13.40
2022-10-25T00:10:50.753Z,13.40
2022-10-25T00:13:37.042Z,13.40
2022-10-25T00:16:25.637Z,13.40
2022-10-25T00:19:12.029Z,13.40
2022-10-25T00:21:57.618Z,13.40
2022-10-25T00:24:43.191Z,13.40
2022-10-25T00:27:28.563Z,13.40
2022-10-25T00:30:14.348Z,13.40
2022-10-25T00:33:00.262Z,13.40
2022-10-25T00:35:45.663Z,13.40
2022-10-25T00:38:31.565Z,13.40
2022-10-25T00:41:21.325Z,13.40
2022-10-25T00:44:26.122Z,13.40
2022-10-25T00:47:41.812Z,13.30
2022-10-25T00:50:45.092Z,13.30
2022-10-25T00:53:37.728Z,13.40
2022-10-25T00:56:27.038Z,13.40
2022-10-25T00:59:17.760Z,13.30
2022-10-25T01:02:03.341Z,13.40
2022-10-25T01:04:50.690Z,13.40
2022-10-25T01:07:36.962Z,13.50
2022-10-25T01:10:22.481Z,13.50
2022-10-25T01:13:08.033Z,13.60
2022-10-25T01:16:17.664Z,13.50
2022-10-25T01:19:12.531Z,13.50
2022-10-25T01:22:12.117Z,13.50
2022-10-25T01:25:04.272Z,13.50
2022-10-25T01:28:05.116Z,13.40
2022-10-25T01:31:13.852Z,13.50
2022-10-25T01:34:10.267Z,13.50
2022-10-25T01:37:05.036Z,13.50
2022-10-25T01:40:15.237Z,13.50
2022-10-25T01:43:33.010Z,13.50
2022-10-25T01:46:29.433Z,13.50
2022-10-25T01:49:24.646Z,13.50
2022-10-25T01:52:10.364Z,13.50
2022-10-25T01:54:55.571Z,13.50
2022-10-25T01:57:47.458Z,13.50
2022-10-25T02:00:44.446Z,13.50
2022-10-25T02:03:30.383Z,13.50
2022-10-25T02:06:20.114Z,13.50
2022-10-25T02:09:14.476Z,13.50
2022-10-25T02:12:03.118Z,13.50
2022-10-25T02:15:10.176Z,13.50
2022-10-25T02:18:00.872Z,13.50
2022-10-25T02:20:48.561Z,13.50
2022-10-25T02:23:37.374Z,13.40
2022-10-25T02:26:24.184Z,13.50
2022-10-25T02:29:11.747Z,13.40
2022-10-25T02:31:57.779Z,13.30
2022-10-25T02:34:43.428Z,13.20
2022-10-25T02:37:32.756Z,13.20
2022-10-25T02:40:18.594Z,13.20
2022-10-25T02:43:04.346Z,13.30
2022-10-25T02:45:50.520Z,13.30
2022-10-25T02:48:39.044Z,13.40
2022-10-25T02:51:24.308Z,13.40
2022-10-25T02:54:10.610Z,13.40
2022-10-25T02:56:56.136Z,13.40
2022-10-25T02:59:41.572Z,13.40
2022-10-25T03:02:27.159Z,13.30
2022-10-25T03:05:12.494Z,13.40
2022-10-25T03:07:57.982Z,13.30
2022-10-25T03:10:43.488Z,13.30
2022-10-25T03:13:28.969Z,13.30
2022-10-25T03:16:14.628Z,13.30
2022-10-25T03:19:00.377Z,13.40
2022-10-25T03:21:46.117Z,13.40
2022-10-25T03:24:32.243Z,13.40
2022-10-25T03:27:17.831Z,13.30
2022-10-25T03:30:05.780Z,13.30
2022-10-25T03:32:51.435Z,13.30
2022-10-25T03:35:37.899Z,13.30
2022-10-25T03:38:23.466Z,13.30
2022-10-25T03:41:09.379Z,13.30
2022-10-25T03:43:55.022Z,13.30
2022-10-25T03:46:40.532Z,13.30
2022-10-25T03:49:26.590Z,13.40
2022-10-25T03:52:12.102Z,13.40
2022-10-25T03:54:57.660Z,13.30
2022-10-25T03:57:43.541Z,13.30
2022-10-25T04:00:30.013Z,13.20
2022-10-25T04:03:16.838Z,13.20
2022-10-25T04:06:03.049Z,13.20
2022-10-25T04:08:48.712Z,13.10
2022-10-25T04:11:34.261Z,13.10
2022-10-25T04:14:20.222Z,13.10
2022-10-25T04:17:05.897Z,13.10
2022-10-25T04:19:51.462Z,13.00
2022-10-25T04:25:29.644Z,13.00
2022-10-25T04:28:15.052Z,13.00
2022-10-25T04:31:01.616Z,13.00
2022-10-25T04:33:54.277Z,13.00
2022-10-25T04:36:40.152Z,13.00
2022-10-25T04:39:26.296Z,13.00
2022-10-25T04:42:12.257Z,13.00
2022-10-25T04:44:58.130Z,13.00
2022-10-25T04:47:43.722Z,12.90
2022-10-25T04:50:29.337Z,12.90
2022-10-25T04:53:14.856Z,12.80
2022-10-25T04:56:05.609Z,12.80
2022-10-25T04:58:52.592Z,12.80
2022-10-25T05:01:38.456Z,12.80
2022-10-25T05:04:24.370Z,12.80
2022-10-25T05:07:10.835Z,12.80
2022-10-25T05:10:05.263Z,12.80
2022-10-25T05:12:57.848Z,12.80
2022-10-25T05:15:43.703Z,12.80
2022-10-25T05:18:30.508Z,12.70
2022-10-25T05:21:17.126Z,12.70
2022-10-25T05:24:03.367Z,12.70
2022-10-25T05:26:49.238Z,12.70
2022-10-25T05:29:36.089Z,12.70
2022-10-25T05:32:21.270Z,12.70
2022-10-25T05:35:09.611Z,12.70
2022-10-25T05:37:55.125Z,12.60
2022-10-25T05:40:42.108Z,12.60
2022-10-25T05:43:29.398Z,12.60
2022-10-25T05:46:18.631Z,12.60
2022-10-25T05:49:05.057Z,12.60
2022-10-25T05:51:50.996Z,12.60
2022-10-25T05:54:37.169Z,12.60
2022-10-25T05:57:22.978Z,12.60
2022-10-25T06:00:08.848Z,12.60
2022-10-25T06:02:54.148Z,12.60
2022-10-25T06:05:39.659Z,12.60
2022-10-25T06:08:25.440Z,12.50
2022-10-25T06:11:13.956Z,12.50
2022-10-25T06:13:59.544Z,12.50
2022-10-25T06:16:45.087Z,12.50
2022-10-25T06:19:30.527Z,12.50
2022-10-25T06:22:16.064Z,12.50
2022-10-25T06:25:01.792Z,12.50
2022-10-25T06:27:47.142Z,12.40
2022-10-25T06:30:33.277Z,12.50
2022-10-25T06:33:18.730Z,12.50
2022-10-25T06:36:05.890Z,12.50
2022-10-25T06:38:51.726Z,12.50
2022-10-25T06:41:37.940Z,12.50
2022-10-25T06:44:23.836Z,12.50
2022-10-25T06:47:17.499Z,12.60
2022-10-25T06:50:04.121Z,12.60
2022-10-25T06:52:49.929Z,12.60
2022-10-25T06:55:35.382Z,12.70
2022-10-25T06:58:21.190Z,12.70
2022-10-25T07:01:10.389Z,12.70
2022-10-25T07:03:56.256Z,12.80
2022-10-25T07:06:42.159Z,12.90
2022-10-25T07:09:28.642Z,13.00
2022-10-25T07:12:14.112Z,13.00
2022-10-25T07:14:59.818Z,13.00
2022-10-25T07:17:45.617Z,13.00
2022-10-25T07:20:31.442Z,13.10
2022-10-25T07:23:17.161Z,13.20
2022-10-25T07:26:02.706Z,13.30
2022-10-25T07:28:51.625Z,13.40
2022-10-25T07:31:41.005Z,13.40
2022-10-25T07:34:26.673Z,13.60
2022-10-25T07:37:12.310Z,13.70
2022-10-25T07:39:57.787Z,13.70
2022-10-25T07:42:43.394Z,13.80
2022-10-25T07:45:31.203Z,13.90
2022-10-25T07:48:16.923Z,14.00
2022-10-25T07:51:07.581Z,14.10
2022-10-25T07:53:53.661Z,14.20
2022-10-25T07:56:39.623Z,14.30
2022-10-25T07:59:25.030Z,14.30
2022-10-25T08:02:12.300Z,14.40
2022-10-25T08:04:57.729Z,14.60
2022-10-25T08:07:43.520Z,14.70
2022-10-25T08:10:29.293Z,14.80
2022-10-25T08:13:14.998Z,14.90
2022-10-25T08:16:00.687Z,15.00
2022-10-25T08:18:46.290Z,15.20
2022-10-25T08:21:31.821Z,15.30
2022-10-25T08:24:17.477Z,15.50
2022-10-25T08:27:02.824Z,15.60
2022-10-25T08:29:48.331Z,15.80
2022-10-25T08:32:37.573Z,16.00
2022-10-25T08:35:23.307Z,16.10
2022-10-25T08:38:08.809Z,16.30
2022-10-25T08:41:03.997Z,16.50
2022-10-25T08:44:26.348Z,16.70
2022-10-25T08:47:34.996Z,16.90
2022-10-25T08:50:22.549Z,17.20
2022-10-25T08:53:27.966Z,17.50
2022-10-25T08:56:17.872Z,17.60
2022-10-25T08:59:05.046Z,17.80
2022-10-25T09:01:55.334Z,18.10
2022-10-25T09:04:40.954Z,18.30
2022-10-25T09:07:44.959Z,18.40
2022-10-25T09:10:53.730Z,18.60
2022-10-25T09:14:00.544Z,18.80
2022-10-25T09:17:22.928Z,18.90
2022-10-25T09:20:32.281Z,19.00
2022-10-25T09:23:32.146Z,19.20
2022-10-25T09:26:31.304Z,19.20
2022-10-25T09:29:41.178Z,19.40
2022-10-25T09:32:45.123Z,19.60
2022-10-25T09:35:45.370Z,19.60
2022-10-25T09:38:43.123Z,19.70
2022-10-25T09:41:42.905Z,19.90
2022-10-25T09:44:42.388Z,20.00
2022-10-25T09:47:40.406Z,20.10
2022-10-25T09:50:34.267Z,20.20
2022-10-25T09:53:23.106Z,20.20
2022-10-25T09:56:09.667Z,20.40
2022-10-25T09:58:55.208Z,20.30
2022-10-25T10:01:41.871Z,20.40
2022-10-25T10:04:38.662Z,20.50
2022-10-25T10:07:29.799Z,20.50
2022-10-25T10:10:20.972Z,20.70
2022-10-25T10:13:35.777Z,20.80
2022-10-25T10:16:30.477Z,20.90
2022-10-25T10:19:24.139Z,21.00
2022-10-25T10:22:14.107Z,21.00
2022-10-25T10:25:02.113Z,21.10
2022-10-25T10:27:50.389Z,21.20
2022-10-25T10:30:38.881Z,21.20
2022-10-25T10:33:31.736Z,21.30
2022-10-25T10:36:26.689Z,21.40
2022-10-25T10:39:23.270Z,21.30
2022-10-25T10:42:36.558Z,21.50
2022-10-25T10:45:22.042Z,21.70
2022-10-25T10:48:19.320Z,21.90
2022-10-25T10:51:09.034Z,22.00
2022-10-25T10:53:57.556Z,22.00
2022-10-25T10:56:43.252Z,22.10
2022-10-25T10:59:56.181Z,22.30
2022-10-25T11:02:42.796Z,22.40
2022-10-25T11:05:31.475Z,22.70
2022-10-25T11:08:19.877Z,22.90
2022-10-25T11:11:21.515Z,23.00
2022-10-25T11:14:15.400Z,23.20
2022-10-25T11:17:26.183Z,23.40
2022-10-25T11:20:25.259Z,23.10
2022-10-25T11:23:22.623Z,23.10
2022-10-25T11:26:36.727Z,23.40
2022-10-25T11:30:08.044Z,23.60
2022-10-25T11:33:16.700Z,24.00
2022-10-25T11:36:13.766Z,24.50
2022-10-25T11:39:19.570Z,25.10
2022-10-25T11:42:50.227Z,25.80
2022-10-25T11:45:46.967Z,26.90
2022-10-25T11:48:51.222Z,28.10
2022-10-25T11:51:49.003Z,29.60
2022-10-25T11:54:49.554Z,31.60
2022-10-25T11:57:56.338Z,32.80
2022-10-25T12:01:06.353Z,34.00
2022-10-25T12:03:54.861Z,35.00
2022-10-25T12:06:45.150Z,35.90
2022-10-25T12:09:42.697Z,36.50
2022-10-25T12:12:55.445Z,36.90
2022-10-25T12:15:47.876Z,37.10
2022-10-25T12:18:46.020Z,36.90
2022-10-25T12:21:46.349Z,36.10
2022-10-25T12:25:02.504Z,35.90
2022-10-25T12:27:55.780Z,36.10
2022-10-25T12:30:44.121Z,35.30
2022-10-25T12:34:06.325Z,35.40
2022-10-25T12:37:06.265Z,35.80
2022-10-25T12:39:52.289Z,35.80
2022-10-25T12:42:46.705Z,35.60
2022-10-25T12:45:53.502Z,35.60
2022-10-25T12:49:03.265Z,34.50
2022-10-25T12:52:23.470Z,34.20
2022-10-25T12:55:24.206Z,34.20
2022-10-25T12:58:26.762Z,34.70
2022-10-25T13:01:34.051Z,34.60
2022-10-25T13:04:44.789Z,34.20
2022-10-25T13:07:33.122Z,34.00
2022-10-25T13:10:22.114Z,33.90
2022-10-25T13:13:15.515Z,34.20
2022-10-25T13:16:03.346Z,33.90
2022-10-25T13:19:42.793Z,33.40
2022-10-25T13:22:41.993Z,33.00
2022-10-25T13:25:30.601Z,32.40
2022-10-25T13:28:16.192Z,32.30
2022-10-25T13:31:36.036Z,32.50
2022-10-25T13:34:29.246Z,32.60
2022-10-25T13:37:33.551Z,32.40
2022-10-25T13:40:26.607Z,32.30
2022-10-25T13:43:21.107Z,31.60
2022-10-25T13:46:10.040Z,31.30
2022-10-25T13:48:55.880Z,31.30
2022-10-25T13:51:41.753Z,31.20
2022-10-25T13:54:55.124Z,30.90
2022-10-25T13:57:58.775Z,30.60
2022-10-25T14:00:49.739Z,30.70
2022-10-25T14:03:50.265Z,30.60
2022-10-25T14:06:35.704Z,30.50
2022-10-25T14:09:29.982Z,30.30
2022-10-25T14:12:20.252Z,30.10
2022-10-25T14:15:34.296Z,29.80
2022-10-25T14:18:23.124Z,29.40
2022-10-25T14:21:12.148Z,28.90
2022-10-25T14:23:58.243Z,28.60
2022-10-25T14:27:30.388Z,28.40
2022-10-25T14:30:28.324Z,28.30
2022-10-25T14:33:23.205Z,28.00
2022-10-25T14:36:19.705Z,27.60
2022-10-25T14:39:18.590Z,27.10
2022-10-25T14:42:05.060Z,26.20
2022-10-25T14:44:50.873Z,25.40
2022-10-25T14:47:36.533Z,24.70
2022-10-25T14:50:25.743Z,24.10
2022-10-25T14:53:16.864Z,23.70
2022-10-25T14:56:05.227Z,23.30
2022-10-25T14:58:50.959Z,22.90
2022-10-25T15:01:37.452Z,22.60
2022-10-25T15:04:40.034Z,22.50
2022-10-25T15:07:32.738Z,22.20
2022-10-25T15:10:41.106Z,22.10
2022-10-25T15:13:30.213Z,22.00
2022-10-25T15:16:31.290Z,21.80
2022-10-25T15:19:20.451Z,21.70
2022-10-25T15:22:10.716Z,21.50
2022-10-25T15:24:57.620Z,21.30
2022-10-25T15:27:43.681Z,21.10
2022-10-25T15:30:38.139Z,20.90
2022-10-25T15:33:33.441Z,20.70
2022-10-25T15:36:22.209Z,20.50
2022-10-25T15:39:26.471Z,20.30
2022-10-25T15:42:14.544Z,20.10
2022-10-25T15:45:00.885Z,20.00
2022-10-25T15:47:47.544Z,19.80
2022-10-25T15:50:33.814Z,19.70
2022-10-25T15:53:19.849Z,19.50
2022-10-25T15:56:05.455Z,19.30
2022-10-25T15:58:51.296Z,19.10
2022-10-25T16:01:38.759Z,19.10
2022-10-25T16:04:25.500Z,18.90
2022-10-25T16:07:12.765Z,18.70
2022-10-25T16:09:58.280Z,18.70
2022-10-25T16:12:48.451Z,18.50
2022-10-25T16:15:34.381Z,18.40
2022-10-25T16:18:20.746Z,18.30
2022-10-25T16:21:06.840Z,18.30
2022-10-25T16:23:52.391Z,18.10
2022-10-25T16:26:48.502Z,18.00
2022-10-25T16:29:34.195Z,17.80
2022-10-25T16:32:20.290Z,17.70
2022-10-25T16:35:06.654Z,17.70
2022-10-25T16:37:52.588Z,17.70
2022-10-25T16:40:38.299Z,17.60
2022-10-25T16:43:23.922Z,17.60
2022-10-25T16:46:09.436Z,17.50
2022-10-25T16:48:57.044Z,17.40
2022-10-25T16:51:45.396Z,17.30
2022-10-25T16:54:30.996Z,17.30
2022-10-25T16:57:16.633Z,17.20
2022-10-25T17:00:03.589Z,17.20
2022-10-25T17:02:49.723Z,17.10
2022-10-25T17:05:38.936Z,17.10
2022-10-25T17:08:25.141Z,17.10
2022-10-25T17:11:12.668Z,17.20
2022-10-25T17:13:58.580Z,17.10
2022-10-25T17:16:44.887Z,17.10
2022-10-25T17:19:30.540Z,17.10
2022-10-25T17:22:15.833Z,17.10
2022-10-25T17:25:01.414Z,17.00
2022-10-25T17:27:51.163Z,17.00
2022-10-25T17:30:36.812Z,17.00
2022-10-25T17:33:23.222Z,17.00
2022-10-25T17:36:15.816Z,17.00
2022-10-25T17:39:01.385Z,17.00
2022-10-25T17:41:46.799Z,17.00
2022-10-25T17:44:32.352Z,17.00
2022-10-25T17:47:18.062Z,17.00
2022-10-25T17:50:05.297Z,16.90
2022-10-25T17:52:51.640Z,16.80
2022-10-25T17:55:40.998Z,16.80
2022-10-25T17:58:26.846Z,16.70
2022-10-25T18:01:14.932Z,16.70
2022-10-25T18:04:01.397Z,16.60
2022-10-25T18:06:47.079Z,16.50
2022-10-25T18:09:33.470Z,16.30
2022-10-25T18:12:19.562Z,16.20
2022-10-25T18:15:06.471Z,16.20
2022-10-25T18:17:52.210Z,16.20
2022-10-25T18:20:40.505Z,16.10
2022-10-25T18:23:26.279Z,16.10
2022-10-25T18:26:13.278Z,16.00
2022-10-25T18:29:00.277Z,16.00
2022-10-25T18:31:46.193Z,15.90
2022-10-25T18:34:31.754Z,15.80
2022-10-25T18:37:17.430Z,15.70
2022-10-25T18:40:04.937Z,15.70
2022-10-25T18:42:50.723Z,15.60
2022-10-25T18:45:36.710Z,15.60
2022-10-25T18:48:22.414Z,15.60
2022-10-25T18:51:11.846Z,15.50
2022-10-25T18:53:59.918Z,15.50
2022-10-25T18:56:45.585Z,15.50
2022-10-25T18:59:31.231Z,15.50
2022-10-25T19:02:16.985Z,15.50
2022-10-25T19:05:02.349Z,15.50
2022-10-25T19:07:48.202Z,15.60
2022-10-25T19:10:40.371Z,15.80
2022-10-25T19:13:25.961Z,15.90
2022-10-25T19:16:13.371Z,15.90
2022-10-25T19:19:07.091Z,16.10
2022-10-25T19:21:53.323Z,16.10
2022-10-25T19:24:39.168Z,16.10
2022-10-25T19:27:24.815Z,16.20
2022-10-25T19:30:11.304Z,16.20
2022-10-25T19:32:57.039Z,16.20
2022-10-25T19:35:42.628Z,16.30
2022-10-25T19:38:28.167Z,16.30
2022-10-25T19:41:16.390Z,16.30
2022-10-25T19:44:02.068Z,16.40
2022-10-25T19:46:51.642Z,16.40
2022-10-25T19:49:37.195Z,16.40
2022-10-25T19:52:24.583Z,16.40
2022-10-25T19:55:10.234Z,16.40
2022-10-25T19:57:55.679Z,16.40
2022-10-25T20:00:41.352Z,16.30
2022-10-25T20:03:26.950Z,16.30
2022-10-25T20:06:20.216Z,16.30
2022-10-25T20:09:10.341Z,16.30
2022-10-25T20:11:56.038Z,16.30
2022-10-25T20:14:42.866Z,16.20
2022-10-25T20:17:28.650Z,16.10
2022-10-25T20:20:14.156Z,16.40
2022-10-25T20:22:59.729Z,16.20
2022-10-25T20:25:45.239Z,16.10
2022-10-25T20:28:30.771Z,16.10
2022-10-25T20:31:16.235Z,16.20
2022-10-25T20:34:02.689Z,16.10
2022-10-25T20:36:48.957Z,16.10
2022-10-25T20:39:35.129Z,16.00
2022-10-25T20:42:21.556Z,16.00
2022-10-25T20:45:07.232Z,15.90
2022-10-25T20:47:57.914Z,15.90
2022-10-25T20:50:49.469Z,15.90
2022-10-25T20:53:36.899Z,15.80
2022-10-25T20:56:22.896Z,15.80
2022-10-25T20:59:08.930Z,15.80
2022-10-25T21:01:54.348Z,15.80
2022-10-25T21:04:53.387Z,15.80
2022-10-25T21:07:39.679Z,15.80
2022-10-25T21:10:25.240Z,15.80
2022-10-25T21:13:10.958Z,15.80
2022-10-25T21:15:57.167Z,15.80
2022-10-25T21:18:43.648Z,15.80
2022-10-25T21:21:29.346Z,15.80
2022-10-25T21:24:15.022Z,15.80
2022-10-25T21:27:00.333Z,15.80
2022-10-25T21:29:45.817Z,15.70
2022-10-25T21:32:31.431Z,15.70
2022-10-25T21:35:17.832Z,15.60
2022-10-25T21:38:03.903Z,15.50
2022-10-25T21:40:49.382Z,15.50
2022-10-25T21:43:35.557Z,15.40
2022-10-25T21:46:22.502Z,15.40
2022-10-25T21:49:08.079Z,15.40
2022-10-25T21:51:53.522Z,15.30
2022-10-25T21:54:39.155Z,15.30
2022-10-25T21:57:27.944Z,15.20
2022-10-25T22:00:14.155Z,15.10
2022-10-25T22:03:01.002Z,15.10
2022-10-25T22:05:46.342Z,15.10
2022-10-25T22:08:31.980Z,15.10
2022-10-25T22:11:27.159Z,15.10
2022-10-25T22:14:13.896Z,15.00
2022-10-25T22:16:59.550Z,15.00
2022-10-25T22:19:45.101Z,15.00
2022-10-25T22:22:30.723Z,15.00
2022-10-25T22:25:16.317Z,15.10
2022-10-25T22:28:02.094Z,15.10
2022-10-25T22:30:47.425Z,15.10
2022-10-25T22:33:34.344Z,15.00
2022-10-25T22:36:20.940Z,15.00
2022-10-25T22:39:07.993Z,15.00
2022-10-25T22:41:54.732Z,15.00
2022-10-25T22:44:40.598Z,15.00
2022-10-25T22:47:26.051Z,15.00
2022-10-25T22:50:11.634Z,15.00
2022-10-25T22:52:57.172Z,15.00
2022-10-25T22:55:43.179Z,15.00
2022-10-25T22:58:32.558Z,15.00
2022-10-25T23:01:20.820Z,15.00
2022-10-25T23:04:08.676Z,15.00
2022-10-25T23:06:54.287Z,15.00
2022-10-25T23:09:39.992Z,15.00
2022-10-25T23:12:26.562Z,15.00
2022-10-25T23:15:12.076Z,15.00
2022-10-25T23:17:59.571Z,15.00
2022-10-25T23:20:59.038Z,15.00
2022-10-25T23:23:45.895Z,15.00
2022-10-25T23:26:33.426Z,15.00
2022-10-25T23:29:18.950Z,15.00
2022-10-25T23:32:04.689Z,15.00
2022-10-25T23:34:52.503Z,15.00
2022-10-25T23:37:39.373Z,15.00
2022-10-25T23:40:25.126Z,15.00
2022-10-25T23:43:10.461Z,15.00
2022-10-25T23:45:56.086Z,14.90
2022-10-25T23:48:41.754Z,14.90
2022-10-25T23:51:27.634Z,14.90
2022-10-25T23:54:13.246Z,14.90
2022-10-25T23:56:58.635Z,14.80
2022-10-25T23:59:44.266Z,14.80
